Time;durP1;ratioP1;P1;durP2;ratioP2;P2;SDS_P1;SDS_P2;PMS_P1;PMS_P2;Temp;Humidity;BMP_temperature;BMP_pressure;BME280_temperature;BME280_humidity;BME280_pressure;Samples;Min_cycle;Max_cycle;Signal;HPM_P1;HPM_P2
2023/08/21 00:01:49;;;;;;;6.30;3.55;;;;;;;;;;5089999;28;20044;-58
2023/08/21 00:04:16;;;;;;;4.10;2.58;;;;;;;;;;5084973;28;20366;-58
2023/08/21 00:06:42;;;;;;;4.20;2.60;;;;;;;;;;5086139;28;20530;-58
2023/08/21 00:09:08;;;;;;;6.13;2.80;;;;;;;;;;5092936;28;20450;-58
2023/08/21 00:11:34;;;;;;;13.63;3.85;;;;;;;;;;5090329;28;20117;-58
2023/08/21 00:14:00;;;;;;;52.72;5.22;;;;;;;;;;5089398;28;20460;-58
2023/08/21 00:16:28;;;;;;;52.38;4.50;;;;;;;;;;5094407;28;20035;-58
2023/08/21 00:18:54;;;;;;;34.17;3.58;;;;;;;;;;5090124;28;20079;-58
2023/08/21 00:21:20;;;;;;;30.95;3.30;;;;;;;;;;5090589;28;20040;-58
2023/08/21 00:23:47;;;;;;;4.35;2.47;;;;;;;;;;5089197;28;20473;-58
2023/08/21 00:26:13;;;;;;;40.05;2.15;;;;;;;;;;5092830;28;20122;-58
2023/08/21 00:28:39;;;;;;;19.95;1.67;;;;;;;;;;5090935;28;20040;-58
2023/08/21 00:31:06;;;;;;;6.13;1.42;;;;;;;;;;5091551;28;20039;-58
2023/08/21 00:33:33;;;;;;;5.90;1.10;;;;;;;;;;5090367;28;20031;-58
2023/08/21 00:35:59;;;;;;;17.33;1.90;;;;;;;;;;5099246;28;20051;-58
2023/08/21 00:38:25;;;;;;;26.75;1.92;;;;;;;;;;5091738;28;20083;-58
2023/08/21 00:40:51;;;;;;;14.27;1.40;;;;;;;;;;5090323;28;20076;-58
2023/08/21 00:43:18;;;;;;;6.45;1.05;;;;;;;;;;5099557;28;20039;-58
2023/08/21 00:45:45;;;;;;;6.07;1.40;;;;;;;;;;5085963;28;20047;-58
2023/08/21 00:48:12;;;;;;;5.20;2.10;;;;;;;;;;5093964;28;20032;-58
2023/08/21 00:50:39;;;;;;;15.55;3.00;;;;;;;;;;5089255;28;20471;-58
2023/08/21 00:53:05;;;;;;;18.20;2.13;;;;;;;;;;5096021;28;20052;-58
2023/08/21 00:55:32;;;;;;;15.70;2.00;;;;;;;;;;5094311;28;20390;-58
2023/08/21 00:57:58;;;;;;;7.00;2.00;;;;;;;;;;5081186;28;20047;-58
2023/08/21 01:00:25;;;;;;;6.40;2.20;;;;;;;;;;5097419;28;20043;-58
2023/08/21 01:02:51;;;;;;;10.52;1.63;;;;;;;;;;5090173;28;20336;-57
2023/08/21 01:05:23;;;;;;;29.00;1.85;;;;;;;;;;5100280;28;20063;-58
2023/08/21 01:07:54;;;;;;;19.02;1.90;;;;;;;;;;5102251;28;20044;-58
2023/08/21 01:10:23;;;;;;;4.82;2.10;;;;;;;;;;5089381;28;20186;-58
2023/08/21 01:12:56;;;;;;;6.57;3.03;;;;;;;;;;5098693;28;20036;-58
2023/08/21 01:15:23;;;;;;;9.35;3.05;;;;;;;;;;5099066;28;20420;-58
2023/08/21 01:17:49;;;;;;;6.03;2.47;;;;;;;;;;5089565;28;20048;-58
2023/08/21 01:20:16;;;;;;;4.25;1.80;;;;;;;;;;5084036;28;20052;-58
2023/08/21 01:22:46;;;;;;;5.22;1.88;;;;;;;;;;5088212;28;20466;-58
2023/08/21 01:25:12;;;;;;;11.18;2.03;;;;;;;;;;5090625;28;20050;-58
2023/08/21 01:27:51;;;;;;;8.15;1.40;;;;;;;;;;5082785;28;20044;-58
2023/08/21 01:30:17;;;;;;;7.82;0.90;;;;;;;;;;5084739;28;20104;-58
2023/08/21 01:32:43;;;;;;;6.07;1.30;;;;;;;;;;5082697;28;20441;-57
2023/08/21 01:35:10;;;;;;;7.18;1.52;;;;;;;;;;5089184;28;20066;-58
2023/08/21 01:37:36;;;;;;;29.20;1.55;;;;;;;;;;5086113;28;20036;-58
2023/08/21 01:40:02;;;;;;;9.82;1.15;;;;;;;;;;5092798;28;20144;-58
2023/08/21 01:42:29;;;;;;;5.68;1.52;;;;;;;;;;5094717;28;20108;-58
2023/08/21 01:44:55;;;;;;;32.30;2.25;;;;;;;;;;5084322;28;20035;-58
2023/08/21 01:47:21;;;;;;;10.52;1.60;;;;;;;;;;5083462;28;20046;-58
2023/08/21 01:49:47;;;;;;;23.55;2.00;;;;;;;;;;5087503;28;20048;-58
2023/08/21 01:52:14;;;;;;;96.25;3.63;;;;;;;;;;5095294;28;20139;-58
2023/08/21 01:54:40;;;;;;;44.53;2.25;;;;;;;;;;5089276;28;20449;-58
2023/08/21 01:57:06;;;;;;;13.07;1.83;;;;;;;;;;5096014;28;20071;-58
2023/08/21 01:59:32;;;;;;;26.35;2.33;;;;;;;;;;5104230;28;20036;-58
2023/08/21 02:01:58;;;;;;;59.33;2.38;;;;;;;;;;5095748;28;20039;-58
2023/08/21 02:04:24;;;;;;;29.55;1.50;;;;;;;;;;5094080;28;20124;-58
2023/08/21 02:06:51;;;;;;;17.63;1.23;;;;;;;;;;5104243;28;20048;-58
2023/08/21 02:09:17;;;;;;;14.13;1.10;;;;;;;;;;5090024;28;20439;-58
2023/08/21 02:11:43;;;;;;;28.42;1.70;;;;;;;;;;5091892;28;20054;-58
2023/08/21 02:14:09;;;;;;;26.30;1.50;;;;;;;;;;5085770;28;20047;-58
2023/08/21 02:16:35;;;;;;;26.52;1.50;;;;;;;;;;5089551;28;20052;-58
2023/08/21 02:19:01;;;;;;;13.85;1.50;;;;;;;;;;5093391;28;20372;-58
2023/08/21 02:21:28;;;;;;;13.40;1.23;;;;;;;;;;5094265;28;20041;-58
2023/08/21 02:23:54;;;;;;;22.35;1.77;;;;;;;;;;5092760;28;20400;-58
2023/08/21 02:26:20;;;;;;;25.00;1.60;;;;;;;;;;5105806;28;20135;-57
2023/08/21 02:28:46;;;;;;;11.88;1.13;;;;;;;;;;5090154;28;20112;-58
2023/08/21 02:31:13;;;;;;;9.98;0.90;;;;;;;;;;5092959;28;20110;-58
2023/08/21 02:33:39;;;;;;;21.30;1.10;;;;;;;;;;5100221;28;20047;-58
2023/08/21 02:36:07;;;;;;;5.65;1.10;;;;;;;;;;5087922;28;20087;-58
2023/08/21 02:38:33;;;;;;;5.88;1.40;;;;;;;;;;5097437;28;20043;-58
2023/08/21 02:40:59;;;;;;;6.20;1.58;;;;;;;;;;5089980;28;20117;-58
2023/08/21 02:43:26;;;;;;;8.15;1.55;;;;;;;;;;5103364;28;20183;-58
2023/08/21 02:45:52;;;;;;;7.50;1.70;;;;;;;;;;5099537;28;20039;-58
2023/08/21 02:48:18;;;;;;;16.42;1.50;;;;;;;;;;5093325;28;20036;-58
2023/08/21 02:50:44;;;;;;;14.02;1.10;;;;;;;;;;5092379;28;20059;-58
2023/08/21 02:53:10;;;;;;;16.95;1.45;;;;;;;;;;5092380;28;20066;-58
2023/08/21 02:55:37;;;;;;;9.07;1.23;;;;;;;;;;5105789;28;20047;-58
2023/08/21 02:58:03;;;;;;;7.82;1.08;;;;;;;;;;5099391;28;20568;-58
2023/08/21 03:00:29;;;;;;;6.15;1.10;;;;;;;;;;5079489;28;20044;-58
2023/08/21 03:02:55;;;;;;;6.78;1.10;;;;;;;;;;5095685;28;20180;-57
2023/08/21 03:05:21;;;;;;;8.77;1.00;;;;;;;;;;5080686;28;20036;-58
2023/08/21 03:07:48;;;;;;;41.47;2.20;;;;;;;;;;5090658;28;20403;-58
2023/08/21 03:10:14;;;;;;;30.90;2.03;;;;;;;;;;5092336;28;20131;-58
2023/08/21 03:12:40;;;;;;;44.13;3.40;;;;;;;;;;5096673;28;20051;-58
2023/08/21 03:15:07;;;;;;;27.20;2.38;;;;;;;;;;5088474;28;20535;-58
2023/08/21 03:17:33;;;;;;;6.28;1.20;;;;;;;;;;5084894;28;20396;-58
2023/08/21 03:19:59;;;;;;;3.30;1.20;;;;;;;;;;5089790;28;20059;-58
2023/08/21 03:22:25;;;;;;;4.25;1.55;;;;;;;;;;5084460;28;20048;-58
2023/08/21 03:24:52;;;;;;;6.22;1.95;;;;;;;;;;5081479;28;20839;-58
2023/08/21 03:27:19;;;;;;;12.13;2.55;;;;;;;;;;5085256;28;20063;-58
2023/08/21 03:29:48;;;;;;;15.00;2.17;;;;;;;;;;5085282;28;20048;-58
2023/08/21 03:32:15;;;;;;;9.55;2.50;;;;;;;;;;5088646;28;20040;-58
2023/08/21 03:34:42;;;;;;;11.10;2.20;;;;;;;;;;5085742;28;20036;-58
2023/08/21 03:37:08;;;;;;;5.85;1.88;;;;;;;;;;5094938;28;20495;-58
2023/08/21 03:39:34;;;;;;;8.60;2.03;;;;;;;;;;5093669;28;20051;-58
2023/08/21 03:42:00;;;;;;;33.70;2.17;;;;;;;;;;5083866;28;20056;-58
2023/08/21 03:44:26;;;;;;;21.95;2.25;;;;;;;;;;5101401;28;20042;-58
2023/08/21 03:46:52;;;;;;;21.58;1.85;;;;;;;;;;5091196;28;20039;-58
2023/08/21 03:49:19;;;;;;;14.75;1.73;;;;;;;;;;5103780;28;20039;-58
2023/08/21 03:51:45;;;;;;;18.23;1.48;;;;;;;;;;5093594;28;20067;-58
2023/08/21 03:54:11;;;;;;;8.52;1.33;;;;;;;;;;5092785;28;20036;-58
2023/08/21 03:56:37;;;;;;;14.25;1.80;;;;;;;;;;5092259;28;20441;-58
2023/08/21 03:59:04;;;;;;;28.45;2.25;;;;;;;;;;5096183;28;20068;-58
2023/08/21 04:01:30;;;;;;;26.95;2.88;;;;;;;;;;5094857;28;20218;-58
2023/08/21 04:03:56;;;;;;;20.65;1.80;;;;;;;;;;5093068;28;20428;-58
2023/08/21 04:06:22;;;;;;;40.42;2.53;;;;;;;;;;5110609;28;20040;-58
2023/08/21 04:08:48;;;;;;;25.02;2.00;;;;;;;;;;5097793;28;20376;-58
2023/08/21 04:11:16;;;;;;;14.10;2.50;;;;;;;;;;5101160;28;20058;-58
2023/08/21 04:13:42;;;;;;;16.67;2.72;;;;;;;;;;5102233;28;20166;-58
2023/08/21 04:16:08;;;;;;;17.92;2.83;;;;;;;;;;5092273;28;20040;-58
2023/08/21 04:18:36;;;;;;;4.68;2.80;;;;;;;;;;5090776;28;20495;-59
2023/08/21 04:21:03;;;;;;;8.02;3.10;;;;;;;;;;5096329;28;20063;-59
2023/08/21 04:23:29;;;;;;;7.03;3.40;;;;;;;;;;5083965;28;20084;-59
2023/08/21 04:26:01;;;;;;;4.15;2.60;;;;;;;;;;5099117;28;20045;-58
2023/08/21 04:28:27;;;;;;;7.07;2.90;;;;;;;;;;5098031;28;20479;-58
2023/08/21 04:30:53;;;;;;;6.00;3.05;;;;;;;;;;5100239;28;20180;-58
2023/08/21 04:33:19;;;;;;;7.95;3.05;;;;;;;;;;5092131;28;20036;-58
2023/08/21 04:35:46;;;;;;;6.55;2.65;;;;;;;;;;5095014;28;20444;-58
2023/08/21 04:38:12;;;;;;;5.90;2.78;;;;;;;;;;5100850;28;20143;-58
2023/08/21 04:40:38;;;;;;;5.43;2.15;;;;;;;;;;5098011;28;20040;-58
2023/08/21 04:43:04;;;;;;;4.45;2.38;;;;;;;;;;5101647;28;20131;-58
2023/08/21 04:45:30;;;;;;;5.72;3.30;;;;;;;;;;5098929;28;20036;-58
2023/08/21 04:47:57;;;;;;;10.43;3.35;;;;;;;;;;5092341;28;20070;-58
2023/08/21 04:50:23;;;;;;;5.63;2.90;;;;;;;;;;5088244;28;20048;-58
2023/08/21 04:52:50;;;;;;;4.70;3.05;;;;;;;;;;5091463;28;20032;-58
2023/08/21 04:55:16;;;;;;;7.43;3.15;;;;;;;;;;5090889;28;20040;-58
2023/08/21 04:57:42;;;;;;;5.43;3.10;;;;;;;;;;5088975;28;20071;-58
2023/08/21 05:00:09;;;;;;;6.07;2.53;;;;;;;;;;5090247;28;20432;-59
2023/08/21 05:02:35;;;;;;;4.28;2.75;;;;;;;;;;5091651;28;20048;-58
2023/08/21 05:05:01;;;;;;;5.53;2.45;;;;;;;;;;5088423;28;20074;-58
2023/08/21 05:07:28;;;;;;;5.15;2.95;;;;;;;;;;5089507;28;20040;-58
2023/08/21 05:09:54;;;;;;;6.35;3.28;;;;;;;;;;5089220;28;20044;-58
2023/08/21 05:12:20;;;;;;;7.32;3.47;;;;;;;;;;5101565;28;20067;-58
2023/08/21 05:14:47;;;;;;;7.88;3.33;;;;;;;;;;5092138;28;20137;-58
2023/08/21 05:17:13;;;;;;;4.53;2.80;;;;;;;;;;5086812;28;20040;-58
2023/08/21 05:19:39;;;;;;;6.47;2.75;;;;;;;;;;5090402;28;20071;-58
2023/08/21 05:22:05;;;;;;;7.22;3.28;;;;;;;;;;5088949;28;20532;-58
2023/08/21 05:24:31;;;;;;;4.97;2.95;;;;;;;;;;5087870;28;20036;-58
2023/08/21 05:26:57;;;;;;;6.28;3.28;;;;;;;;;;5090525;28;20052;-58
2023/08/21 05:29:24;;;;;;;5.03;3.08;;;;;;;;;;5089298;28;20036;-58
2023/08/21 05:31:50;;;;;;;7.18;3.42;;;;;;;;;;5088823;28;20089;-58
2023/08/21 05:34:16;;;;;;;7.97;3.97;;;;;;;;;;5088466;28;20416;-58
2023/08/21 05:36:42;;;;;;;7.25;3.78;;;;;;;;;;5092616;28;20040;-58
2023/08/21 05:39:08;;;;;;;5.82;3.33;;;;;;;;;;5088393;28;20086;-59
2023/08/21 05:41:35;;;;;;;6.22;3.10;;;;;;;;;;5095543;28;20516;-58
2023/08/21 05:44:01;;;;;;;7.85;2.70;;;;;;;;;;5101150;28;20081;-58
2023/08/21 05:46:27;;;;;;;5.25;2.72;;;;;;;;;;5091625;28;20047;-58
2023/08/21 05:48:53;;;;;;;9.98;3.10;;;;;;;;;;5111882;28;20470;-58
2023/08/21 05:51:19;;;;;;;7.28;2.95;;;;;;;;;;5101723;28;20047;-58
2023/08/21 05:53:46;;;;;;;8.15;3.50;;;;;;;;;;5106762;28;20110;-58
2023/08/21 05:56:12;;;;;;;9.77;4.10;;;;;;;;;;5111524;28;20450;-57
2023/08/21 05:58:38;;;;;;;5.53;3.70;;;;;;;;;;5108872;28;20093;-58
2023/08/21 06:01:04;;;;;;;11.25;4.68;;;;;;;;;;5097475;28;20117;-58
2023/08/21 06:03:30;;;;;;;8.30;4.90;;;;;;;;;;5094524;28;20104;-58
2023/08/21 06:05:57;;;;;;;13.20;6.00;;;;;;;;;;5102898;28;20909;-59
2023/08/21 06:08:23;;;;;;;8.65;5.68;;;;;;;;;;5103140;28;20059;-58
2023/08/21 06:10:52;;;;;;;15.80;6.82;;;;;;;;;;5094123;28;20054;-58
2023/08/21 06:13:19;;;;;;;12.10;6.20;;;;;;;;;;5104284;28;20100;-58
2023/08/21 06:15:45;;;;;;;12.65;6.63;;;;;;;;;;5092574;28;20075;-58
2023/08/21 06:18:11;;;;;;;14.90;6.50;;;;;;;;;;5097153;28;20044;-59
2023/08/21 06:20:38;;;;;;;15.63;6.97;;;;;;;;;;5091225;28;20036;-58
2023/08/21 06:23:04;;;;;;;14.85;6.50;;;;;;;;;;5096952;28;20075;-58
2023/08/21 06:25:30;;;;;;;13.80;6.57;;;;;;;;;;5095438;28;20047;-58
2023/08/21 06:27:57;;;;;;;17.35;7.07;;;;;;;;;;5107040;28;20560;-58
2023/08/21 06:30:23;;;;;;;20.65;7.72;;;;;;;;;;5091573;28;20043;-58
2023/08/21 06:32:49;;;;;;;12.13;6.28;;;;;;;;;;5102790;28;20043;-58
2023/08/21 06:35:15;;;;;;;14.32;6.75;;;;;;;;;;5100940;28;20051;-58
2023/08/21 06:37:42;;;;;;;15.35;6.47;;;;;;;;;;5106459;28;20080;-59
2023/08/21 06:40:08;;;;;;;12.88;6.45;;;;;;;;;;5105394;28;20062;-59
2023/08/21 06:42:34;;;;;;;13.50;6.72;;;;;;;;;;5095248;28;20102;-59
2023/08/21 06:45:00;;;;;;;13.30;5.85;;;;;;;;;;5095084;28;20036;-59
2023/08/21 06:47:27;;;;;;;17.83;6.30;;;;;;;;;;5100867;28;20373;-59
2023/08/21 06:49:53;;;;;;;12.30;5.47;;;;;;;;;;5103352;28;20048;-60
2023/08/21 06:52:19;;;;;;;11.32;5.55;;;;;;;;;;5111794;28;20044;-60
2023/08/21 06:54:45;;;;;;;12.52;6.28;;;;;;;;;;5107578;28;20039;-59
2023/08/21 06:57:11;;;;;;;13.52;6.40;;;;;;;;;;5091564;28;20457;-59
2023/08/21 06:59:38;;;;;;;16.27;6.15;;;;;;;;;;5096560;28;20060;-59
2023/08/21 07:02:04;;;;;;;12.55;6.93;;;;;;;;;;5088124;28;20052;-59
2023/08/21 07:04:30;;;;;;;16.90;7.03;;;;;;;;;;5094927;28;20036;-59
2023/08/21 07:06:56;;;;;;;9.10;5.85;;;;;;;;;;5096408;28;20040;-59
2023/08/21 07:09:23;;;;;;;13.82;6.57;;;;;;;;;;5102329;28;20348;-60
2023/08/21 07:11:49;;;;;;;12.07;6.32;;;;;;;;;;5113657;28;20039;-60
2023/08/21 07:14:16;;;;;;;14.27;6.43;;;;;;;;;;5112864;28;20047;-59
2023/08/21 07:16:43;;;;;;;12.02;6.30;;;;;;;;;;5106980;28;20503;-59
2023/08/21 07:19:09;;;;;;;12.23;6.75;;;;;;;;;;5104846;28;20535;-59
2023/08/21 07:21:38;;;;;;;12.32;5.82;;;;;;;;;;5099076;28;20102;-60
2023/08/21 07:24:04;;;;;;;13.40;6.13;;;;;;;;;;5108159;28;20415;-60
2023/08/21 07:26:30;;;;;;;14.88;6.30;;;;;;;;;;5107763;28;20514;-59
2023/08/21 07:28:57;;;;;;;14.93;6.10;;;;;;;;;;5106738;28;20421;-59
2023/08/21 07:31:23;;;;;;;14.02;6.13;;;;;;;;;;5095119;28;20113;-59
2023/08/21 07:33:49;;;;;;;14.88;6.93;;;;;;;;;;5099804;28;20121;-60
2023/08/21 07:36:18;;;;;;;13.52;6.43;;;;;;;;;;5106798;28;20409;-59
2023/08/21 07:38:45;;;;;;;8.85;5.68;;;;;;;;;;5093411;27;20121;-60
2023/08/21 07:41:12;;;;;;;12.43;5.38;;;;;;;;;;5098553;28;20040;-60
2023/08/21 07:43:39;;;;;;;15.65;7.47;;;;;;;;;;5112932;28;20450;-60
2023/08/21 07:46:05;;;;;;;13.18;6.07;;;;;;;;;;5096547;28;20084;-60
2023/08/21 07:48:32;;;;;;;13.95;5.97;;;;;;;;;;5099806;28;20478;-60
2023/08/21 07:50:58;;;;;;;17.40;6.10;;;;;;;;;;5113726;28;20051;-60
2023/08/21 07:53:25;;;;;;;11.75;6.25;;;;;;;;;;5098924;28;20043;-59
2023/08/21 07:55:51;;;;;;;15.98;6.60;;;;;;;;;;5089223;28;20069;-60
2023/08/21 07:58:17;;;;;;;11.27;5.22;;;;;;;;;;5104913;28;20039;-60
2023/08/21 08:00:44;;;;;;;16.15;5.28;;;;;;;;;;5112903;28;20035;-60
2023/08/21 08:03:10;;;;;;;14.63;6.03;;;;;;;;;;5097659;28;20463;-60
2023/08/21 08:05:37;;;;;;;16.08;5.80;;;;;;;;;;5085426;28;20048;-60
2023/08/21 08:08:04;;;;;;;14.48;5.55;;;;;;;;;;5109707;28;20035;-60
2023/08/21 08:10:30;;;;;;;12.10;4.97;;;;;;;;;;5091877;27;20111;-60
2023/08/21 08:12:56;;;;;;;12.05;5.32;;;;;;;;;;5095166;28;20047;-59
2023/08/21 08:15:23;;;;;;;12.95;5.47;;;;;;;;;;5094523;28;20534;-60
2023/08/21 08:17:53;;;;;;;12.75;5.72;;;;;;;;;;5113414;28;20156;-60
2023/08/21 08:20:19;;;;;;;14.50;5.85;;;;;;;;;;5103973;27;20123;-59
2023/08/21 08:22:46;;;;;;;9.88;4.72;;;;;;;;;;5089523;28;20877;-60
2023/08/21 08:25:13;;;;;;;13.35;5.03;;;;;;;;;;5095182;28;20107;-59
2023/08/21 08:27:40;;;;;;;8.40;4.57;;;;;;;;;;5102400;28;20148;-60
2023/08/21 08:30:06;;;;;;;14.75;4.75;;;;;;;;;;5113151;28;20035;-60
2023/08/21 08:32:33;;;;;;;14.98;5.32;;;;;;;;;;5098412;28;20050;-60
2023/08/21 08:34:59;;;;;;;12.65;5.40;;;;;;;;;;5102512;28;20459;-60
2023/08/21 08:37:25;;;;;;;11.95;5.38;;;;;;;;;;5098388;28;20106;-60
2023/08/21 08:39:51;;;;;;;12.73;5.47;;;;;;;;;;5102083;28;20040;-60
2023/08/21 08:42:17;;;;;;;14.65;5.82;;;;;;;;;;5097193;28;20087;-60
2023/08/21 08:44:44;;;;;;;13.13;4.80;;;;;;;;;;5107236;28;20407;-60
2023/08/21 08:47:14;;;;;;;13.73;5.18;;;;;;;;;;5104016;28;20035;-59
2023/08/21 08:49:40;;;;;;;10.48;5.38;;;;;;;;;;5096972;28;20059;-60
2023/08/21 08:52:07;;;;;;;8.27;4.13;;;;;;;;;;5104374;28;20124;-60
2023/08/21 08:54:35;;;;;;;13.82;4.75;;;;;;;;;;5100345;28;20152;-60
2023/08/21 08:57:02;;;;;;;12.35;4.82;;;;;;;;;;5100205;28;20122;-59
2023/08/21 08:59:31;;;;;;;13.70;5.00;;;;;;;;;;5100091;28;20063;-59
2023/08/21 09:01:57;;;;;;;10.45;4.57;;;;;;;;;;5098513;28;20048;-60
2023/08/21 09:04:24;;;;;;;12.43;4.05;;;;;;;;;;5094967;28;20482;-60
2023/08/21 09:06:50;;;;;;;13.40;4.82;;;;;;;;;;5108148;28;20075;-60
2023/08/21 09:09:16;;;;;;;12.95;4.20;;;;;;;;;;5106259;28;20126;-60
2023/08/21 09:11:43;;;;;;;10.88;4.10;;;;;;;;;;5106172;28;20197;-60
2023/08/21 09:14:10;;;;;;;18.10;5.57;;;;;;;;;;5096945;28;20044;-60
2023/08/21 09:16:36;;;;;;;13.02;5.57;;;;;;;;;;5085148;28;20063;-60
2023/08/21 09:19:03;;;;;;;11.52;5.18;;;;;;;;;;5091561;28;20040;-60
2023/08/21 09:21:29;;;;;;;11.55;4.38;;;;;;;;;;5089209;28;20396;-60
2023/08/21 09:24:00;;;;;;;9.18;3.70;;;;;;;;;;5098124;28;20046;-59
2023/08/21 09:26:26;;;;;;;33.40;9.88;;;;;;;;;;5091104;28;20044;-60
2023/08/21 09:28:53;;;;;;;13.43;4.05;;;;;;;;;;5094446;28;20048;-60
2023/08/21 09:31:32;;;;;;;17.85;5.38;;;;;;;;;;5090658;28;20056;-60
2023/08/21 09:34:06;;;;;;;13.27;4.35;;;;;;;;;;5091455;28;20040;-60
2023/08/21 09:36:33;;;;;;;12.18;4.00;;;;;;;;;;5091178;28;20137;-60
2023/08/21 09:38:59;;;;;;;15.60;4.65;;;;;;;;;;5090089;28;20047;-59
2023/08/21 09:41:26;;;;;;;13.95;4.85;;;;;;;;;;5089704;28;20097;-60
2023/08/21 09:43:52;;;;;;;18.17;4.50;;;;;;;;;;5090574;28;20115;-60
2023/08/21 09:46:24;;;;;;;12.38;4.10;;;;;;;;;;5102467;28;20068;-60
2023/08/21 09:48:52;;;;;;;7.88;2.90;;;;;;;;;;5087153;28;20577;-60
2023/08/21 09:51:18;;;;;;;9.32;3.17;;;;;;;;;;5111286;28;20104;-60
2023/08/21 09:53:45;;;;;;;9.07;2.70;;;;;;;;;;5091889;28;20183;-60
2023/08/21 09:56:12;;;;;;;8.07;3.03;;;;;;;;;;5107158;28;20051;-60
2023/08/21 09:58:38;;;;;;;6.20;2.95;;;;;;;;;;5097049;27;20044;-60
2023/08/21 10:01:13;;;;;;;8.85;3.03;;;;;;;;;;5111549;28;20035;-61
2023/08/21 10:03:40;;;;;;;9.90;3.03;;;;;;;;;;5102238;28;20075;-65
2023/08/21 10:06:09;;;;;;;9.40;2.80;;;;;;;;;;5103625;28;20051;-62
2023/08/21 10:08:42;;;;;;;10.38;2.38;;;;;;;;;;5103285;28;20118;-60
2023/08/21 10:11:09;;;;;;;10.73;2.83;;;;;;;;;;5101390;28;20083;-60
2023/08/21 10:13:37;;;;;;;6.50;2.13;;;;;;;;;;5105758;28;20040;-61
2023/08/21 10:16:03;;;;;;;7.85;2.50;;;;;;;;;;5086508;28;20105;-61
2023/08/21 10:18:31;;;;;;;11.23;2.97;;;;;;;;;;5091796;28;20032;-61
2023/08/21 10:21:10;;;;;;;8.88;2.63;;;;;;;;;;5110395;28;20122;-61
2023/08/21 10:23:37;;;;;;;8.82;2.45;;;;;;;;;;5111181;28;20061;-60
2023/08/21 10:26:06;;;;;;;10.20;3.10;;;;;;;;;;5099105;28;20050;-61
2023/08/21 10:28:51;;;;;;;8.23;2.53;;;;;;;;;;5083673;28;20075;-61
2023/08/21 10:31:38;;;;;;;8.77;2.38;;;;;;;;;;5084233;28;20052;-61
2023/08/21 10:34:09;;;;;;;7.22;2.50;;;;;;;;;;5078446;28;20127;-61
2023/08/21 10:36:58;;;;;;;7.80;2.25;;;;;;;;;;5088399;28;20116;-61
2023/08/21 10:39:25;;;;;;;8.73;2.28;;;;;;;;;;5083707;28;20052;-61
2023/08/21 10:41:58;;;;;;;7.68;3.03;;;;;;;;;;5093940;28;20399;-61
2023/08/21 10:44:24;;;;;;;;;;;;;;;;;;5111182;28;20116;-61
2023/08/21 10:46:50;;;;;;;7.50;2.33;;;;;;;;;;5107512;28;19991;-61
2023/08/21 10:49:16;;;;;;;8.00;2.05;;;;;;;;;;5101487;28;20035;-61
2023/08/21 10:51:44;;;;;;;5.40;1.60;;;;;;;;;;5110281;28;20056;-61
2023/08/21 10:54:14;;;;;;;7.85;1.85;;;;;;;;;;5101316;28;20036;-61
2023/08/21 10:56:40;;;;;;;8.57;2.17;;;;;;;;;;5108905;28;20368;-60
2023/08/21 10:59:06;;;;;;;6.63;1.65;;;;;;;;;;5099178;28;20118;-61
2023/08/21 11:01:45;;;;;;;7.60;1.88;;;;;;;;;;5110390;28;20066;-61
2023/08/21 11:04:14;;;;;;;8.95;1.77;;;;;;;;;;5101815;28;20075;-61
2023/08/21 11:06:40;;;;;;;6.38;1.63;;;;;;;;;;5086591;28;20110;-61
2023/08/21 11:09:12;;;;;;;7.05;1.58;;;;;;;;;;5089933;28;20047;-61
2023/08/21 11:11:39;;;;;;;7.03;1.95;;;;;;;;;;5102844;28;20050;-61
2023/08/21 11:14:05;;;;;;;7.07;1.75;;;;;;;;;;5090585;28;20064;-61
2023/08/21 11:16:31;;;;;;;7.80;1.80;;;;;;;;;;5094510;28;20075;-61
2023/08/21 11:18:57;;;;;;;5.35;1.40;;;;;;;;;;5108253;28;20047;-60
2023/08/21 11:21:25;;;;;;;4.90;1.20;;;;;;;;;;5105344;28;20208;-59
2023/08/21 11:23:51;;;;;;;4.03;1.25;;;;;;;;;;5093712;28;20083;-59
2023/08/21 11:26:17;;;;;;;4.57;1.23;;;;;;;;;;5101575;28;20437;-59
2023/08/21 11:28:44;;;;;;;7.32;1.20;;;;;;;;;;5096524;28;20039;-59
2023/08/21 11:31:10;;;;;;;5.47;1.20;;;;;;;;;;5090787;28;20429;-59
2023/08/21 11:33:39;;;;;;;5.90;1.55;;;;;;;;;;5102053;28;20124;-59
2023/08/21 11:36:05;;;;;;;6.53;1.80;;;;;;;;;;5093950;28;20047;-59
2023/08/21 11:38:31;;;;;;;7.18;1.85;;;;;;;;;;5104104;28;20447;-59
2023/08/21 11:40:58;;;;;;;7.15;1.77;;;;;;;;;;5103195;28;20191;-59
2023/08/21 11:43:41;;;;;;;5.75;1.63;;;;;;;;;;5109568;28;20043;-59
2023/08/21 11:46:07;;;;;;;5.47;1.00;;;;;;;;;;5107294;28;20051;-59
2023/08/21 11:48:35;;;;;;;5.35;1.48;;;;;;;;;;5100784;28;20063;-59
2023/08/21 11:51:02;;;;;;;4.80;1.40;;;;;;;;;;5112920;27;20082;-59
2023/08/21 11:53:41;;;;;;;8.40;1.58;;;;;;;;;;5113909;28;20040;-59
2023/08/21 11:56:17;;;;;;;6.15;1.27;;;;;;;;;;5113662;28;20457;-59
2023/08/21 11:58:50;;;;;;;5.15;1.30;;;;;;;;;;5094929;28;20036;-59
2023/08/21 12:01:17;;;;;;;6.88;1.33;;;;;;;;;;5095779;28;20048;-59
2023/08/21 12:03:44;;;;;;;9.10;1.85;;;;;;;;;;5099394;28;20044;-59
2023/08/21 12:06:11;;;;;;;7.63;1.60;;;;;;;;;;5089139;28;20044;-60
2023/08/21 12:08:38;;;;;;;6.88;1.42;;;;;;;;;;5091542;28;20079;-60
2023/08/21 12:11:04;;;;;;;8.65;1.60;;;;;;;;;;5092414;28;20074;-59
2023/08/21 12:13:31;;;;;;;6.35;1.52;;;;;;;;;;5090927;28;20115;-59
2023/08/21 12:15:57;;;;;;;8.60;1.90;;;;;;;;;;5092159;28;20044;-59
2023/08/21 12:18:24;;;;;;;7.90;1.52;;;;;;;;;;5093340;28;20321;-59
2023/08/21 12:20:51;;;;;;;4.80;1.20;;;;;;;;;;5096742;28;20040;-59
2023/08/21 12:23:17;;;;;;;6.78;1.60;;;;;;;;;;5095105;28;20463;-59
2023/08/21 12:25:43;;;;;;;7.53;1.70;;;;;;;;;;5092433;28;20071;-59
2023/08/21 12:28:09;;;;;;;7.22;1.60;;;;;;;;;;5090969;28;20044;-59
2023/08/21 12:30:35;;;;;;;7.00;1.80;;;;;;;;;;5090004;28;20047;-59
2023/08/21 12:33:02;;;;;;;7.68;1.90;;;;;;;;;;5091603;28;20075;-59
2023/08/21 12:35:28;;;;;;;5.43;1.20;;;;;;;;;;5091533;28;20031;-60
2023/08/21 12:38:05;;;;;;;7.38;2.30;;;;;;;;;;5092779;28;20044;-59
2023/08/21 12:40:32;;;;;;;8.10;1.75;;;;;;;;;;5090980;28;20058;-59
2023/08/21 12:42:58;;;;;;;6.63;1.63;;;;;;;;;;5099421;28;20040;-59
2023/08/21 12:45:24;;;;;;;7.95;1.40;;;;;;;;;;5087778;28;20073;-59
2023/08/21 12:47:50;;;;;;;6.05;1.95;;;;;;;;;;5089735;28;20433;-59
2023/08/21 12:50:16;;;;;;;4.90;1.70;;;;;;;;;;5093625;28;20146;-58
2023/08/21 12:52:43;;;;;;;8.95;2.13;;;;;;;;;;5091735;28;20044;-59
2023/08/21 12:55:09;;;;;;;7.32;1.80;;;;;;;;;;5102765;28;20358;-59
2023/08/21 12:57:35;;;;;;;7.32;2.10;;;;;;;;;;5102625;28;20043;-58
2023/08/21 13:00:01;;;;;;;7.35;2.10;;;;;;;;;;5112756;28;20140;-58
2023/08/21 13:02:27;;;;;;;8.15;1.80;;;;;;;;;;5098352;28;20042;-58
2023/08/21 13:04:54;;;;;;;9.98;2.78;;;;;;;;;;5095520;28;20059;-58
2023/08/21 13:07:20;;;;;;;8.25;2.20;;;;;;;;;;5112701;28;20043;-58
2023/08/21 13:09:46;;;;;;;4.93;2.03;;;;;;;;;;5111734;28;20039;-58
2023/08/21 13:12:12;;;;;;;9.25;2.45;;;;;;;;;;5109634;28;20430;-58
2023/08/21 13:14:38;;;;;;;9.50;2.35;;;;;;;;;;5102371;28;20042;-58
2023/08/21 13:17:04;;;;;;;5.95;1.70;;;;;;;;;;5097862;28;20503;-58
2023/08/21 13:19:31;;;;;;;8.88;1.52;;;;;;;;;;5112456;28;20089;-58
2023/08/21 13:21:57;;;;;;;6.15;1.50;;;;;;;;;;5111996;28;20458;-58
2023/08/21 13:24:23;;;;;;;6.57;1.55;;;;;;;;;;5107698;28;20151;-58
2023/08/21 13:26:49;;;;;;;6.28;1.33;;;;;;;;;;5112086;28;20562;-58
2023/08/21 13:29:15;;;;;;;6.68;1.48;;;;;;;;;;5112255;28;20032;-58
2023/08/21 13:31:42;;;;;;;6.38;1.15;;;;;;;;;;5097616;28;20075;-58
2023/08/21 13:34:08;;;;;;;6.95;1.13;;;;;;;;;;5108335;28;20482;-58
2023/08/21 13:36:34;;;;;;;7.40;1.52;;;;;;;;;;5111445;28;20062;-58
2023/08/21 13:39:00;;;;;;;6.07;1.10;;;;;;;;;;5100432;28;20116;-58
2023/08/21 13:41:27;;;;;;;6.72;1.77;;;;;;;;;;5110492;27;20058;-58
2023/08/21 13:43:53;;;;;;;9.02;1.65;;;;;;;;;;5111304;28;20411;-58
2023/08/21 13:46:20;;;;;;;5.35;1.40;;;;;;;;;;5095482;28;20036;-58
2023/08/21 13:48:46;;;;;;;5.40;1.25;;;;;;;;;;5111926;28;20348;-58
2023/08/21 13:51:12;;;;;;;4.50;1.00;;;;;;;;;;5110881;28;20052;-58
2023/08/21 13:53:39;;;;;;;4.68;1.00;;;;;;;;;;5111091;28;20043;-59
2023/08/21 13:56:05;;;;;;;4.55;1.15;;;;;;;;;;5097662;28;20044;-60
2023/08/21 13:58:31;;;;;;;8.73;1.02;;;;;;;;;;5107432;28;20073;-59
2023/08/21 14:00:58;;;;;;;5.28;0.77;;;;;;;;;;5100329;28;20420;-63
2023/08/21 14:03:24;;;;;;;5.85;1.40;;;;;;;;;;5088421;28;20044;-59
2023/08/21 14:05:51;;;;;;;7.38;1.40;;;;;;;;;;5097950;28;20539;-60
2023/08/21 14:08:17;;;;;;;4.63;1.58;;;;;;;;;;5109883;28;20043;-59
2023/08/21 14:10:44;;;;;;;6.88;1.52;;;;;;;;;;5088481;28;20084;-58
2023/08/21 14:13:10;;;;;;;4.82;1.10;;;;;;;;;;5095033;28;20114;-59
2023/08/21 14:15:36;;;;;;;6.20;1.30;;;;;;;;;;5094614;28;20099;-59
2023/08/21 14:18:02;;;;;;;5.47;1.70;;;;;;;;;;5096476;28;20032;-58
2023/08/21 14:20:29;;;;;;;7.47;1.45;;;;;;;;;;5090421;28;20093;-59
2023/08/21 14:22:55;;;;;;;5.30;1.25;;;;;;;;;;5090580;28;20052;-59
2023/08/21 14:25:21;;;;;;;9.63;1.85;;;;;;;;;;5088578;28;20415;-59
2023/08/21 14:27:49;;;;;;;6.65;1.50;;;;;;;;;;5090119;28;20044;-59
2023/08/21 14:30:15;;;;;;;7.50;1.70;;;;;;;;;;5088662;28;20463;-59
2023/08/21 14:32:42;;;;;;;5.72;1.60;;;;;;;;;;5089868;28;20100;-59
2023/08/21 14:35:08;;;;;;;5.57;1.33;;;;;;;;;;5090483;28;20074;-58
2023/08/21 14:37:38;;;;;;;6.05;1.65;;;;;;;;;;5090165;28;20056;-59